sensor_id;sensor_type;location;lat;lon;timestamp;pressure;altitude;pressure_sealevel;temperature;humidity
67987;BME280;54767;53.800;15.956;2023-02-16T00:00:26;100916.88;;;2.85;76.13
67987;BME280;54767;53.800;15.956;2023-02-16T00:03:20;100915.90;;;2.82;76.43
67987;BME280;54767;53.800;15.956;2023-02-16T00:05:49;100914.92;;;2.79;76.39
67987;BME280;54767;53.800;15.956;2023-02-16T00:08:18;100916.01;;;2.77;76.25
67987;BME280;54767;53.800;15.956;2023-02-16T00:10:46;100914.08;;;2.76;76.34
67987;BME280;54767;53.800;15.956;2023-02-16T00:13:35;100908.04;;;2.76;76.53
67987;BME280;54767;53.800;15.956;2023-02-16T00:16:16;100907.16;;;2.76;76.47
67987;BME280;54767;53.800;15.956;2023-02-16T00:18:46;100904.20;;;2.75;76.85
67987;BME280;54767;53.800;15.956;2023-02-16T00:21:15;100901.36;;;2.74;76.55
67987;BME280;54767;53.800;15.956;2023-02-16T00:23:44;100899.25;;;2.73;76.72
67987;BME280;54767;53.800;15.956;2023-02-16T00:26:21;100898.67;;;2.71;76.75
67987;BME280;54767;53.800;15.956;2023-02-16T00:28:51;100893.45;;;2.70;77.02
67987;BME280;54767;53.800;15.956;2023-02-16T00:31:23;100890.75;;;2.72;76.91
67987;BME280;54767;53.800;15.956;2023-02-16T00:34:12;100886.27;;;2.72;77.20
67987;BME280;54767;53.800;15.956;2023-02-16T00:36:48;100881.11;;;2.73;77.28
67987;BME280;54767;53.800;15.956;2023-02-16T00:39:16;100882.86;;;2.74;77.03
67987;BME280;54767;53.800;15.956;2023-02-16T00:41:45;100884.77;;;2.74;77.16
67987;BME280;54767;53.800;15.956;2023-02-16T00:44:35;100889.47;;;2.75;77.13
67987;BME280;54767;53.800;15.956;2023-02-16T00:47:17;100887.64;;;2.76;77.28
67987;BME280;54767;53.800;15.956;2023-02-16T00:49:49;100887.05;;;2.78;77.13
67987;BME280;54767;53.800;15.956;2023-02-16T00:52:34;100891.59;;;2.80;77.24
67987;BME280;54767;53.800;15.956;2023-02-16T00:55:09;100889.74;;;2.81;77.03
67987;BME280;54767;53.800;15.956;2023-02-16T01:00:35;100885.42;;;2.81;77.24
67987;BME280;54767;53.800;15.956;2023-02-16T01:03:07;100882.89;;;2.82;77.39
67987;BME280;54767;53.800;15.956;2023-02-16T01:05:37;100885.93;;;2.84;77.20
67987;BME280;54767;53.800;15.956;2023-02-16T01:08:14;100882.73;;;2.87;77.18
67987;BME280;54767;53.800;15.956;2023-02-16T01:11:03;100879.45;;;2.86;77.14
67987;BME280;54767;53.800;15.956;2023-02-16T01:13:45;100877.63;;;2.84;77.18
67987;BME280;54767;53.800;15.956;2023-02-16T01:16:17;100877.66;;;2.81;76.92
67987;BME280;54767;53.800;15.956;2023-02-16T01:18:46;100878.20;;;2.77;77.17
67987;BME280;54767;53.800;15.956;2023-02-16T01:21:15;100877.44;;;2.76;77.08
67987;BME280;54767;53.800;15.956;2023-02-16T01:23:43;100880.89;;;2.76;77.18
67987;BME280;54767;53.800;15.956;2023-02-16T01:26:16;100875.89;;;2.76;77.15
67987;BME280;54767;53.800;15.956;2023-02-16T01:28:46;100875.34;;;2.76;77.04
67987;BME280;54767;53.800;15.956;2023-02-16T01:31:15;100874.59;;;2.74;77.22
67987;BME280;54767;53.800;15.956;2023-02-16T01:33:44;100878.14;;;2.72;77.34
67987;BME280;54767;53.800;15.956;2023-02-16T01:36:23;100883.34;;;2.68;77.24
67987;BME280;54767;53.800;15.956;2023-02-16T01:38:53;100884.92;;;2.65;77.20
67987;BME280;54767;53.800;15.956;2023-02-16T01:47:12;100878.23;;;2.62;77.06
67987;BME280;54767;53.800;15.956;2023-02-16T01:49:45;100879.58;;;2.62;77.22
67987;BME280;54767;53.800;15.956;2023-02-16T01:52:30;100875.52;;;2.59;77.17
67987;BME280;54767;53.800;15.956;2023-02-16T01:58:09;100877.19;;;2.54;77.18
67987;BME280;54767;53.800;15.956;2023-02-16T02:03:37;100871.77;;;2.53;77.27
67987;BME280;54767;53.800;15.956;2023-02-16T02:06:32;100871.75;;;2.53;77.30
67987;BME280;54767;53.800;15.956;2023-02-16T02:09:10;100875.66;;;2.51;77.28
67987;BME280;54767;53.800;15.956;2023-02-16T02:11:45;100875.45;;;2.50;77.26
67987;BME280;54767;53.800;15.956;2023-02-16T02:14:22;100873.08;;;2.47;77.16
67987;BME280;54767;53.800;15.956;2023-02-16T02:16:57;100875.38;;;2.45;77.23
67987;BME280;54767;53.800;15.956;2023-02-16T02:19:28;100873.09;;;2.44;77.22
67987;BME280;54767;53.800;15.956;2023-02-16T02:25:44;100871.50;;;2.43;77.24
67987;BME280;54767;53.800;15.956;2023-02-16T02:28:25;100865.33;;;2.40;77.10
67987;BME280;54767;53.800;15.956;2023-02-16T02:31:00;100867.61;;;2.37;77.29
67987;BME280;54767;53.800;15.956;2023-02-16T02:34:03;100863.48;;;2.34;77.28
67987;BME280;54767;53.800;15.956;2023-02-16T02:36:46;100862.86;;;2.32;77.20
67987;BME280;54767;53.800;15.956;2023-02-16T02:42:13;100855.92;;;2.31;77.32
67987;BME280;54767;53.800;15.956;2023-02-16T02:44:52;100855.02;;;2.30;77.25
67987;BME280;54767;53.800;15.956;2023-02-16T02:47:22;100857.73;;;2.29;77.38
67987;BME280;54767;53.800;15.956;2023-02-16T02:49:52;100857.95;;;2.26;77.30
67987;BME280;54767;53.800;15.956;2023-02-16T02:52:21;100854.92;;;2.24;77.33
67987;BME280;54767;53.800;15.956;2023-02-16T02:54:50;100854.64;;;2.22;77.36
67987;BME280;54767;53.800;15.956;2023-02-16T02:57:43;100852.38;;;2.21;77.34
67987;BME280;54767;53.800;15.956;2023-02-16T03:00:34;100847.88;;;2.21;77.32
67987;BME280;54767;53.800;15.956;2023-02-16T03:03:28;100846.29;;;2.20;77.18
67987;BME280;54767;53.800;15.956;2023-02-16T03:06:06;100838.60;;;2.18;77.36
67987;BME280;54767;53.800;15.956;2023-02-16T03:08:39;100841.02;;;2.15;77.50
67987;BME280;54767;53.800;15.956;2023-02-16T03:11:18;100835.55;;;2.12;77.35
67987;BME280;54767;53.800;15.956;2023-02-16T03:14:38;100836.52;;;2.10;77.47
67987;BME280;54767;53.800;15.956;2023-02-16T03:17:14;100838.41;;;2.10;77.44
67987;BME280;54767;53.800;15.956;2023-02-16T03:20:05;100841.44;;;2.09;77.42
67987;BME280;54767;53.800;15.956;2023-02-16T03:22:53;100843.80;;;2.08;77.46
67987;BME280;54767;53.800;15.956;2023-02-16T03:25:42;100844.98;;;2.07;77.64
67987;BME280;54767;53.800;15.956;2023-02-16T03:28:32;100844.62;;;2.07;77.44
67987;BME280;54767;53.800;15.956;2023-02-16T03:31:28;100839.25;;;2.06;77.44
67987;BME280;54767;53.800;15.956;2023-02-16T03:33:57;100838.09;;;2.07;77.56
67987;BME280;54767;53.800;15.956;2023-02-16T03:36:29;100836.86;;;2.07;77.37
67987;BME280;54767;53.800;15.956;2023-02-16T03:38:58;100835.78;;;2.06;77.40
67987;BME280;54767;53.800;15.956;2023-02-16T03:41:32;100834.69;;;2.04;77.51
67987;BME280;54767;53.800;15.956;2023-02-16T03:44:00;100830.47;;;2.02;77.42
67987;BME280;54767;53.800;15.956;2023-02-16T03:46:29;100832.26;;;2.00;77.43
67987;BME280;54767;53.800;15.956;2023-02-16T03:48:58;100829.16;;;2.00;77.34
67987;BME280;54767;53.800;15.956;2023-02-16T03:51:26;100826.28;;;1.98;77.33
67987;BME280;54767;53.800;15.956;2023-02-16T03:53:55;100825.96;;;1.99;77.35
67987;BME280;54767;53.800;15.956;2023-02-16T03:56:23;100827.30;;;1.98;77.29
67987;BME280;54767;53.800;15.956;2023-02-16T03:58:52;100824.42;;;1.95;77.38
67987;BME280;54767;53.800;15.956;2023-02-16T04:01:20;100829.20;;;1.94;77.50
67987;BME280;54767;53.800;15.956;2023-02-16T04:03:48;100830.16;;;1.92;77.49
67987;BME280;54767;53.800;15.956;2023-02-16T04:06:17;100827.54;;;1.91;77.42
67987;BME280;54767;53.800;15.956;2023-02-16T04:08:45;100823.73;;;1.91;77.48
67987;BME280;54767;53.800;15.956;2023-02-16T04:11:13;100821.16;;;1.92;77.61
67987;BME280;54767;53.800;15.956;2023-02-16T04:14:00;100811.99;;;1.91;77.57
67987;BME280;54767;53.800;15.956;2023-02-16T04:16:30;100807.42;;;1.89;77.54
67987;BME280;54767;53.800;15.956;2023-02-16T04:18:58;100807.17;;;1.88;77.60
67987;BME280;54767;53.800;15.956;2023-02-16T04:21:27;100793.40;;;1.85;77.60
67987;BME280;54767;53.800;15.956;2023-02-16T04:23:55;100795.05;;;1.87;77.62
67987;BME280;54767;53.800;15.956;2023-02-16T04:26:24;100796.67;;;1.88;77.65
67987;BME280;54767;53.800;15.956;2023-02-16T04:28:53;100794.48;;;1.90;77.62
67987;BME280;54767;53.800;15.956;2023-02-16T04:31:21;100793.27;;;1.90;77.57
67987;BME280;54767;53.800;15.956;2023-02-16T04:33:50;100793.28;;;1.90;77.59
67987;BME280;54767;53.800;15.956;2023-02-16T04:36:18;100794.21;;;1.88;77.54
67987;BME280;54767;53.800;15.956;2023-02-16T04:38:50;100796.57;;;1.86;77.66
67987;BME280;54767;53.800;15.956;2023-02-16T04:41:18;100796.28;;;1.84;77.47
67987;BME280;54767;53.800;15.956;2023-02-16T04:43:47;100794.13;;;1.82;77.50
67987;BME280;54767;53.800;15.956;2023-02-16T04:46:15;100801.02;;;1.82;77.53
67987;BME280;54767;53.800;15.956;2023-02-16T04:48:44;100799.37;;;1.83;77.50
67987;BME280;54767;53.800;15.956;2023-02-16T04:51:12;100798.33;;;1.83;77.48
67987;BME280;54767;53.800;15.956;2023-02-16T04:53:40;100791.19;;;1.82;77.52
67987;BME280;54767;53.800;15.956;2023-02-16T04:56:10;100791.31;;;1.81;77.56
67987;BME280;54767;53.800;15.956;2023-02-16T04:58:38;100791.38;;;1.78;77.52
67987;BME280;54767;53.800;15.956;2023-02-16T05:01:06;100795.73;;;1.76;77.59
67987;BME280;54767;53.800;15.956;2023-02-16T05:03:35;100792.23;;;1.74;77.58
67987;BME280;54767;53.800;15.956;2023-02-16T05:06:03;100792.24;;;1.74;77.39
67987;BME280;54767;53.800;15.956;2023-02-16T05:08:32;100789.50;;;1.75;77.41
67987;BME280;54767;53.800;15.956;2023-02-16T05:11:00;100786.02;;;1.74;77.42
67987;BME280;54767;53.800;15.956;2023-02-16T05:13:47;100780.35;;;1.71;77.51
67987;BME280;54767;53.800;15.956;2023-02-16T05:16:34;100776.40;;;1.68;77.48
67987;BME280;54767;53.800;15.956;2023-02-16T05:19:03;100773.85;;;1.65;77.48
67987;BME280;54767;53.800;15.956;2023-02-16T05:21:31;100773.86;;;1.65;77.40
67987;BME280;54767;53.800;15.956;2023-02-16T05:24:18;100773.15;;;1.65;77.53
67987;BME280;54767;53.800;15.956;2023-02-16T05:26:46;100776.05;;;1.64;77.45
67987;BME280;54767;53.800;15.956;2023-02-16T05:29:14;100773.27;;;1.64;77.45
67987;BME280;54767;53.800;15.956;2023-02-16T05:31:43;100772.70;;;1.63;77.54
67987;BME280;54767;53.800;15.956;2023-02-16T05:34:11;100771.84;;;1.59;77.48
67987;BME280;54767;53.800;15.956;2023-02-16T05:36:39;100775.55;;;1.57;77.50
67987;BME280;54767;53.800;15.956;2023-02-16T05:39:08;100771.73;;;1.56;77.60
67987;BME280;54767;53.800;15.956;2023-02-16T05:41:36;100768.48;;;1.57;77.45
67987;BME280;54767;53.800;15.956;2023-02-16T05:44:07;100767.33;;;1.58;77.57
67987;BME280;54767;53.800;15.956;2023-02-16T05:46:37;100766.44;;;1.58;77.46
67987;BME280;54767;53.800;15.956;2023-02-16T05:49:07;100766.41;;;1.57;77.48
67987;BME280;54767;53.800;15.956;2023-02-16T05:51:36;100765.30;;;1.55;77.64
67987;BME280;54767;53.800;15.956;2023-02-16T05:54:05;100762.27;;;1.53;77.66
67987;BME280;54767;53.800;15.956;2023-02-16T05:56:34;100761.02;;;1.52;77.56
67987;BME280;54767;53.800;15.956;2023-02-16T05:59:03;100763.55;;;1.51;77.57
67987;BME280;54767;53.800;15.956;2023-02-16T06:01:31;100757.70;;;1.51;77.59
67987;BME280;54767;53.800;15.956;2023-02-16T06:03:59;100757.24;;;1.53;77.69
67987;BME280;54767;53.800;15.956;2023-02-16T06:06:28;100756.45;;;1.54;77.80
67987;BME280;54767;53.800;15.956;2023-02-16T06:08:56;100759.08;;;1.55;77.62
67987;BME280;54767;53.800;15.956;2023-02-16T06:11:25;100761.83;;;1.55;77.72
67987;BME280;54767;53.800;15.956;2023-02-16T06:14:11;100763.66;;;1.53;77.66
67987;BME280;54767;53.800;15.956;2023-02-16T06:16:43;100766.36;;;1.52;77.60
67987;BME280;54767;53.800;15.956;2023-02-16T06:19:12;100772.16;;;1.51;77.41
67987;BME280;54767;53.800;15.956;2023-02-16T06:21:41;100770.20;;;1.50;77.54
67987;BME280;54767;53.800;15.956;2023-02-16T06:24:11;100776.70;;;1.49;77.50
67987;BME280;54767;53.800;15.956;2023-02-16T06:26:40;100779.11;;;1.49;77.41
67987;BME280;54767;53.800;15.956;2023-02-16T06:29:09;100781.56;;;1.49;77.53
67987;BME280;54767;53.800;15.956;2023-02-16T06:31:37;100779.95;;;1.48;77.56
67987;BME280;54767;53.800;15.956;2023-02-16T06:34:06;100783.98;;;1.46;77.45
67987;BME280;54767;53.800;15.956;2023-02-16T06:36:34;100784.38;;;1.43;77.52
67987;BME280;54767;53.800;15.956;2023-02-16T06:39:03;100794.48;;;1.42;77.60
67987;BME280;54767;53.800;15.956;2023-02-16T06:41:31;100793.08;;;1.41;77.61
67987;BME280;54767;53.800;15.956;2023-02-16T06:44:10;100795.38;;;1.42;77.53
67987;BME280;54767;53.800;15.956;2023-02-16T06:46:42;100798.19;;;1.43;77.49
67987;BME280;54767;53.800;15.956;2023-02-16T06:49:13;100793.05;;;1.44;77.59
67987;BME280;54767;53.800;15.956;2023-02-16T06:51:41;100783.74;;;1.44;77.71
67987;BME280;54767;53.800;15.956;2023-02-16T06:54:10;100784.09;;;1.44;77.58
67987;BME280;54767;53.800;15.956;2023-02-16T06:56:39;100781.23;;;1.42;77.73
67987;BME280;54767;53.800;15.956;2023-02-16T06:59:09;100778.66;;;1.43;77.69
67987;BME280;54767;53.800;15.956;2023-02-16T07:01:37;100769.05;;;1.44;77.69
67987;BME280;54767;53.800;15.956;2023-02-16T07:04:06;100770.02;;;1.46;77.71
67987;BME280;54767;53.800;15.956;2023-02-16T07:06:35;100767.85;;;1.47;77.69
67987;BME280;54767;53.800;15.956;2023-02-16T07:09:03;100763.77;;;1.48;77.75
67987;BME280;54767;53.800;15.956;2023-02-16T07:11:32;100766.21;;;1.49;77.69
67987;BME280;54767;53.800;15.956;2023-02-16T07:14:00;100762.70;;;1.48;77.91
67987;BME280;54767;53.800;15.956;2023-02-16T07:16:29;100765.58;;;1.50;77.89
67987;BME280;54767;53.800;15.956;2023-02-16T07:18:57;100768.35;;;1.51;77.97
67987;BME280;54767;53.800;15.956;2023-02-16T07:21:27;100769.42;;;1.51;77.90
67987;BME280;54767;53.800;15.956;2023-02-16T07:23:55;100772.73;;;1.52;77.92
67987;BME280;54767;53.800;15.956;2023-02-16T07:26:23;100774.39;;;1.54;77.99
67987;BME280;54767;53.800;15.956;2023-02-16T07:29:07;100775.61;;;1.54;77.99
67987;BME280;54767;53.800;15.956;2023-02-16T07:32:02;100769.05;;;1.55;78.05
67987;BME280;54767;53.800;15.956;2023-02-16T07:34:31;100767.88;;;1.55;78.18
67987;BME280;54767;53.800;15.956;2023-02-16T07:36:59;100769.81;;;1.56;78.25
67987;BME280;54767;53.800;15.956;2023-02-16T07:39:27;100769.04;;;1.58;78.27
67987;BME280;54767;53.800;15.956;2023-02-16T07:41:57;100769.98;;;1.60;78.38
67987;BME280;54767;53.800;15.956;2023-02-16T07:44:26;100768.83;;;1.61;78.42
67987;BME280;54767;53.800;15.956;2023-02-16T07:46:54;100773.11;;;1.64;78.41
67987;BME280;54767;53.800;15.956;2023-02-16T07:49:22;100772.52;;;1.66;78.62
67987;BME280;54767;53.800;15.956;2023-02-16T07:51:50;100772.81;;;1.69;78.55
67987;BME280;54767;53.800;15.956;2023-02-16T07:54:19;100769.26;;;1.70;78.61
67987;BME280;54767;53.800;15.956;2023-02-16T07:56:47;100768.30;;;1.72;78.67
67987;BME280;54767;53.800;15.956;2023-02-16T07:59:15;100766.15;;;1.74;78.58
67987;BME280;54767;53.800;15.956;2023-02-16T08:01:44;100766.52;;;1.74;78.71
67987;BME280;54767;53.800;15.956;2023-02-16T08:04:12;100762.48;;;1.76;78.83
67987;BME280;54767;53.800;15.956;2023-02-16T08:06:41;100769.54;;;1.80;78.91
67987;BME280;54767;53.800;15.956;2023-02-16T08:09:09;100766.21;;;1.83;78.98
67987;BME280;54767;53.800;15.956;2023-02-16T08:11:37;100763.43;;;1.86;78.96
67987;BME280;54767;53.800;15.956;2023-02-16T08:14:06;100760.78;;;1.89;79.06
67987;BME280;54767;53.800;15.956;2023-02-16T08:16:34;100761.42;;;1.91;79.03
67987;BME280;54767;53.800;15.956;2023-02-16T08:19:02;100763.89;;;1.92;79.09
67987;BME280;54767;53.800;15.956;2023-02-16T08:21:33;100764.55;;;1.96;79.12
67987;BME280;54767;53.800;15.956;2023-02-16T08:24:04;100758.30;;;1.98;79.25
67987;BME280;54767;53.800;15.956;2023-02-16T08:26:37;100754.08;;;2.01;79.26
67987;BME280;54767;53.800;15.956;2023-02-16T08:29:07;100747.92;;;2.02;79.39
67987;BME280;54767;53.800;15.956;2023-02-16T08:31:43;100747.84;;;2.04;79.45
67987;BME280;54767;53.800;15.956;2023-02-16T08:34:18;100747.92;;;2.06;79.35
67987;BME280;54767;53.800;15.956;2023-02-16T08:36:52;100747.22;;;2.10;79.45
67987;BME280;54767;53.800;15.956;2023-02-16T08:39:24;100745.80;;;2.13;79.53
67987;BME280;54767;53.800;15.956;2023-02-16T08:41:54;100740.23;;;2.16;79.53
67987;BME280;54767;53.800;15.956;2023-02-16T08:44:23;100738.44;;;2.18;79.61
67987;BME280;54767;53.800;15.956;2023-02-16T08:46:54;100734.73;;;2.20;79.68
67987;BME280;54767;53.800;15.956;2023-02-16T08:49:24;100732.24;;;2.22;79.69
67987;BME280;54767;53.800;15.956;2023-02-16T08:51:55;100731.88;;;2.26;79.67
67987;BME280;54767;53.800;15.956;2023-02-16T08:54:26;100731.95;;;2.32;79.85
67987;BME280;54767;53.800;15.956;2023-02-16T08:56:58;100732.36;;;2.37;79.87
67987;BME280;54767;53.800;15.956;2023-02-16T08:59:30;100734.56;;;2.40;79.85
67987;BME280;54767;53.800;15.956;2023-02-16T09:02:00;100740.00;;;2.42;79.87
67987;BME280;54767;53.800;15.956;2023-02-16T09:04:29;100741.34;;;2.45;80.22
67987;BME280;54767;53.800;15.956;2023-02-16T09:06:58;100748.66;;;2.51;80.26
67987;BME280;54767;53.800;15.956;2023-02-16T09:09:26;100745.20;;;2.55;80.09
67987;BME280;54767;53.800;15.956;2023-02-16T09:11:55;100743.72;;;2.61;80.16
67987;BME280;54767;53.800;15.956;2023-02-16T09:14:25;100741.55;;;2.66;80.48
67987;BME280;54767;53.800;15.956;2023-02-16T09:16:53;100745.39;;;2.72;80.41
67987;BME280;54767;53.800;15.956;2023-02-16T09:19:21;100743.59;;;2.75;80.49
67987;BME280;54767;53.800;15.956;2023-02-16T09:21:52;100753.11;;;2.78;80.52
67987;BME280;54767;53.800;15.956;2023-02-16T09:24:23;100753.00;;;2.84;80.53
67987;BME280;54767;53.800;15.956;2023-02-16T09:26:53;100754.80;;;2.90;80.66
67987;BME280;54767;53.800;15.956;2023-02-16T09:29:21;100753.91;;;2.94;80.50
67987;BME280;54767;53.800;15.956;2023-02-16T09:31:53;100749.70;;;2.97;80.35
67987;BME280;54767;53.800;15.956;2023-02-16T09:34:22;100753.50;;;2.97;80.31
67987;BME280;54767;53.800;15.956;2023-02-16T09:36:50;100760.32;;;2.98;80.39
67987;BME280;54767;53.800;15.956;2023-02-16T09:39:19;100759.59;;;3.02;80.39
67987;BME280;54767;53.800;15.956;2023-02-16T09:47:16;100757.60;;;3.12;80.55
67987;BME280;54767;53.800;15.956;2023-02-16T09:49:47;100755.35;;;3.16;80.74
67987;BME280;54767;53.800;15.956;2023-02-16T09:52:25;100761.52;;;3.19;80.65
67987;BME280;54767;53.800;15.956;2023-02-16T09:54:57;100766.13;;;3.22;80.61
67987;BME280;54767;53.800;15.956;2023-02-16T10:03:11;100754.16;;;3.39;81.00
67987;BME280;54767;53.800;15.956;2023-02-16T10:05:48;100745.75;;;3.45;81.21
67987;BME280;54767;53.800;15.956;2023-02-16T10:08:24;100745.21;;;3.49;81.17
67987;BME280;54767;53.800;15.956;2023-02-16T10:11:02;100748.53;;;3.55;81.30
67987;BME280;54767;53.800;15.956;2023-02-16T10:16:04;100749.63;;;3.70;81.22
67987;BME280;54767;53.800;15.956;2023-02-16T10:18:41;100755.45;;;3.78;81.06
67987;BME280;54767;53.800;15.956;2023-02-16T10:21:15;100753.61;;;3.83;81.13
67987;BME280;54767;53.800;15.956;2023-02-16T10:23:48;100751.04;;;3.89;81.28
67987;BME280;54767;53.800;15.956;2023-02-16T10:26:29;100749.05;;;3.96;81.53
67987;BME280;54767;53.800;15.956;2023-02-16T10:29:06;100747.77;;;4.04;81.11
67987;BME280;54767;53.800;15.956;2023-02-16T10:31:42;100750.94;;;4.15;81.54
67987;BME280;54767;53.800;15.956;2023-02-16T10:37:02;100747.95;;;4.33;81.43
67987;BME280;54767;53.800;15.956;2023-02-16T10:45:10;100742.27;;;4.48;81.28
67987;BME280;54767;53.800;15.956;2023-02-16T10:47:45;100743.27;;;4.58;81.68
67987;BME280;54767;53.800;15.956;2023-02-16T10:50:40;100740.92;;;4.66;81.47
67987;BME280;54767;53.800;15.956;2023-02-16T10:59:17;100737.13;;;4.92;81.50
67987;BME280;54767;53.800;15.956;2023-02-16T11:01:57;100730.48;;;5.00;81.78
67987;BME280;54767;53.800;15.956;2023-02-16T11:07:06;100726.27;;;5.15;81.35
67987;BME280;54767;53.800;15.956;2023-02-16T11:09:36;100721.48;;;5.23;81.46
67987;BME280;54767;53.800;15.956;2023-02-16T11:12:27;100716.64;;;5.29;81.44
67987;BME280;54767;53.800;15.956;2023-02-16T11:15:00;100721.77;;;5.38;81.46
67987;BME280;54767;53.800;15.956;2023-02-16T11:17:46;100721.13;;;5.45;81.27
67987;BME280;54767;53.800;15.956;2023-02-16T11:23:25;100717.64;;;5.62;81.18
67987;BME280;54767;53.800;15.956;2023-02-16T11:26:21;100715.60;;;5.70;80.82
67987;BME280;54767;53.800;15.956;2023-02-16T11:28:51;100715.21;;;5.74;80.76
67987;BME280;54767;53.800;15.956;2023-02-16T11:31:30;100716.83;;;5.76;80.84
67987;BME280;54767;53.800;15.956;2023-02-16T11:34:06;100719.61;;;5.76;80.42
67987;BME280;54767;53.800;15.956;2023-02-16T11:36:44;100714.83;;;5.79;80.58
67987;BME280;54767;53.800;15.956;2023-02-16T11:39:21;100715.52;;;5.84;80.47
67987;BME280;54767;53.800;15.956;2023-02-16T11:41:55;100712.73;;;5.90;80.37
67987;BME280;54767;53.800;15.956;2023-02-16T11:44:41;100717.02;;;5.93;80.00
67987;BME280;54767;53.800;15.956;2023-02-16T11:47:31;100716.26;;;5.92;79.80
67987;BME280;54767;53.800;15.956;2023-02-16T11:52:49;100718.40;;;5.93;79.70
67987;BME280;54767;53.800;15.956;2023-02-16T11:55:25;100717.59;;;5.96;79.76
67987;BME280;54767;53.800;15.956;2023-02-16T12:01:14;100715.20;;;6.03;79.56
67987;BME280;54767;53.800;15.956;2023-02-16T12:23:22;100710.05;;;6.44;79.67
67987;BME280;54767;53.800;15.956;2023-02-16T12:28:55;100702.66;;;6.54;79.34
67987;BME280;54767;53.800;15.956;2023-02-16T12:31:38;100695.67;;;6.60;79.08
67987;BME280;54767;53.800;15.956;2023-02-16T12:34:36;100687.27;;;6.64;79.24
67987;BME280;54767;53.800;15.956;2023-02-16T12:40:19;100677.83;;;6.69;78.83
67987;BME280;54767;53.800;15.956;2023-02-16T12:45:41;100679.98;;;6.79;78.72
67987;BME280;54767;53.800;15.956;2023-02-16T12:51:14;100674.17;;;6.91;78.27
67987;BME280;54767;53.800;15.956;2023-02-16T12:53:55;100671.61;;;6.93;78.14
67987;BME280;54767;53.800;15.956;2023-02-16T12:56:35;100672.89;;;6.95;78.03
67987;BME280;54767;53.800;15.956;2023-02-16T12:59:47;100671.02;;;6.97;78.04
67987;BME280;54767;53.800;15.956;2023-02-16T13:02:41;100673.55;;;7.01;78.24
67987;BME280;54767;53.800;15.956;2023-02-16T13:05:34;100666.61;;;7.09;78.06
67987;BME280;54767;53.800;15.956;2023-02-16T13:08:13;100667.48;;;7.17;77.91
67987;BME280;54767;53.800;15.956;2023-02-16T13:13:47;100663.44;;;7.24;77.28
67987;BME280;54767;53.800;15.956;2023-02-16T13:16:25;100667.48;;;7.25;77.13
67987;BME280;54767;53.800;15.956;2023-02-16T13:18:59;100668.02;;;7.25;76.97
67987;BME280;54767;53.800;15.956;2023-02-16T13:21:57;100667.65;;;7.25;77.00
67987;BME280;54767;53.800;15.956;2023-02-16T13:39:34;100650.48;;;7.28;76.65
67987;BME280;54767;53.800;15.956;2023-02-16T13:45:15;100645.89;;;7.33;76.76
67987;BME280;54767;53.800;15.956;2023-02-16T13:47:55;100641.52;;;7.32;76.46
67987;BME280;54767;53.800;15.956;2023-02-16T13:50:31;100649.33;;;7.38;76.43
67987;BME280;54767;53.800;15.956;2023-02-16T13:53:18;100650.20;;;7.39;76.12
67987;BME280;54767;53.800;15.956;2023-02-16T13:56:33;100639.83;;;7.34;76.39
67987;BME280;54767;53.800;15.956;2023-02-16T14:01:51;100650.20;;;7.39;76.09
67987;BME280;54767;53.800;15.956;2023-02-16T14:07:20;100653.92;;;7.42;75.87
67987;BME280;54767;53.800;15.956;2023-02-16T14:09:49;100651.48;;;7.42;75.67
67987;BME280;54767;53.800;15.956;2023-02-16T14:12:30;100646.77;;;7.41;75.56
67987;BME280;54767;53.800;15.956;2023-02-16T14:15:05;100644.86;;;7.41;75.54
67987;BME280;54767;53.800;15.956;2023-02-16T14:17:43;100644.32;;;7.41;75.61
67987;BME280;54767;53.800;15.956;2023-02-16T14:22:46;100647.64;;;7.41;75.64
67987;BME280;54767;53.800;15.956;2023-02-16T14:27:54;100641.27;;;7.45;75.61
67987;BME280;54767;53.800;15.956;2023-02-16T14:30:47;100641.30;;;7.46;75.43
67987;BME280;54767;53.800;15.956;2023-02-16T14:33:27;100644.62;;;7.46;75.44
67987;BME280;54767;53.800;15.956;2023-02-16T14:36:17;100643.03;;;7.46;75.42
67987;BME280;54767;53.800;15.956;2023-02-16T14:38:50;100644.20;;;7.43;75.28
67987;BME280;54767;53.800;15.956;2023-02-16T14:43:52;100636.71;;;7.43;75.49
67987;BME280;54767;53.800;15.956;2023-02-16T14:58:04;100640.67;;;7.41;75.38
67987;BME280;54767;53.800;15.956;2023-02-16T15:00:47;100649.89;;;7.41;75.43
67987;BME280;54767;53.800;15.956;2023-02-16T15:03:24;100645.38;;;7.41;75.40
67987;BME280;54767;53.800;15.956;2023-02-16T15:08:23;100642.06;;;7.41;75.21
67987;BME280;54767;53.800;15.956;2023-02-16T15:13:40;100638.69;;;7.38;75.37
67987;BME280;54767;53.800;15.956;2023-02-16T15:16:11;100635.51;;;7.36;75.31
67987;BME280;54767;53.800;15.956;2023-02-16T15:18:45;100640.02;;;7.35;75.45
67987;BME280;54767;53.800;15.956;2023-02-16T15:21:18;100642.42;;;7.34;75.32
67987;BME280;54767;53.800;15.956;2023-02-16T15:23:50;100641.71;;;7.33;75.28
67987;BME280;54767;53.800;15.956;2023-02-16T15:26:32;100640.98;;;7.32;75.31
67987;BME280;54767;53.800;15.956;2023-02-16T15:31:47;100636.50;;;7.26;75.25
67987;BME280;54767;53.800;15.956;2023-02-16T15:34:32;100641.13;;;7.22;75.24
67987;BME280;54767;53.800;15.956;2023-02-16T15:37:22;100638.31;;;7.20;75.43
67987;BME280;54767;53.800;15.956;2023-02-16T15:39:51;100639.70;;;7.20;75.38
67987;BME280;54767;53.800;15.956;2023-02-16T15:42:42;100632.06;;;7.21;75.53
67987;BME280;54767;53.800;15.956;2023-02-16T15:45:33;100628.23;;;7.21;75.46
67987;BME280;54767;53.800;15.956;2023-02-16T15:48:35;100623.86;;;7.20;75.43
67987;BME280;54767;53.800;15.956;2023-02-16T15:53:47;100629.70;;;7.16;75.57
67987;BME280;54767;53.800;15.956;2023-02-16T15:56:26;100632.24;;;7.14;75.55